Time;durP1;ratioP1;P1;durP2;ratioP2;P2;SDS_P1;SDS_P2;PMS_P1;PMS_P2;Temp;Humidity;BMP_temperature;BMP_pressure;BME280_temperature;BME280_humidity;BME280_pressure;Samples;Min_cycle;Max_cycle;Signal;HPM_P1;HPM_P2
2021/05/28 00:01:16;;;;;;;22.73;10.83;;;;;;;;;;5047905;28;38541;-76
2021/05/28 00:03:43;;;;;;;19.17;9.40;;;;;;;;;;5041468;28;38747;-77
2021/05/28 00:06:09;;;;;;;24.60;9.03;;;;;;;;;;5049455;27;35995;-78
2021/05/28 00:08:36;;;;;;;20.07;8.93;;;;;;;;;;5047798;28;36281;-78
2021/05/28 00:11:02;;;;;;;17.37;8.47;;;;;;;;;;5053168;28;39743;-78
2021/05/28 00:13:29;;;;;;;27.67;10.07;;;;;;;;;;5042835;28;39969;-77
2021/05/28 00:15:55;;;;;;;19.47;8.83;;;;;;;;;;5029299;27;38135;-78
2021/05/28 00:18:21;;;;;;;17.43;8.57;;;;;;;;;;5028389;28;37179;-77
2021/05/28 00:20:48;;;;;;;20.03;8.80;;;;;;;;;;5058404;27;38961;-77
2021/05/28 00:23:14;;;;;;;22.07;10.13;;;;;;;;;;5030128;28;38272;-79
2021/05/28 00:25:40;;;;;;;27.50;10.03;;;;;;;;;;5023951;28;39663;-76
2021/05/28 00:28:07;;;;;;;25.70;11.30;;;;;;;;;;5029566;28;37866;-79
2021/05/28 00:30:33;;;;;;;26.40;9.23;;;;;;;;;;5027087;28;39083;-77
2021/05/28 00:33:00;;;;;;;25.00;11.50;;;;;;;;;;5028732;28;38333;-80
2021/05/28 00:35:26;;;;;;;22.23;11.37;;;;;;;;;;5028252;28;38103;-78
2021/05/28 00:37:53;;;;;;;29.73;13.20;;;;;;;;;;5029208;28;36285;-77
2021/05/28 00:40:19;;;;;;;23.43;11.93;;;;;;;;;;5030833;27;38352;-79
2021/05/28 00:42:46;;;;;;;33.10;14.47;;;;;;;;;;5060588;28;39359;-77
2021/05/28 00:45:13;;;;;;;30.20;13.40;;;;;;;;;;5025412;28;37881;-76
2021/05/28 00:47:39;;;;;;;26.43;14.23;;;;;;;;;;5032909;28;37651;-79
2021/05/28 00:50:06;;;;;;;23.27;12.20;;;;;;;;;;5027069;28;40164;-81
2021/05/28 00:52:32;;;;;;;23.37;10.97;;;;;;;;;;5030246;28;40330;-77
2021/05/28 00:54:58;;;;;;;31.53;12.90;;;;;;;;;;5028152;28;38036;-76
2021/05/28 00:57:27;;;;;;;26.57;12.23;;;;;;;;;;5061285;28;36449;-76
2021/05/28 00:59:56;;;;;;;27.47;14.53;;;;;;;;;;5029319;28;39504;-79
2021/05/28 01:02:22;;;;;;;38.33;16.27;;;;;;;;;;5031563;28;38731;-78
2021/05/28 01:04:49;;;;;;;25.20;13.23;;;;;;;;;;5031616;28;37563;-80
2021/05/28 01:07:15;;;;;;;33.37;17.33;;;;;;;;;;5025326;28;37131;-78
2021/05/28 01:09:42;;;;;;;36.13;18.03;;;;;;;;;;5030292;28;39303;-78
2021/05/28 01:12:08;;;;;;;30.83;15.97;;;;;;;;;;5030130;28;39488;-79
2021/05/28 01:14:35;;;;;;;29.60;14.97;;;;;;;;;;5030280;28;37104;-78
2021/05/28 01:17:01;;;;;;;27.93;14.50;;;;;;;;;;5025477;28;38009;-77
2021/05/28 01:19:28;;;;;;;23.67;13.27;;;;;;;;;;5022073;28;47332;-79
2021/05/28 01:21:55;;;;;;;26.30;14.20;;;;;;;;;;5024797;28;38371;-78
2021/05/28 01:24:22;;;;;;;36.43;17.13;;;;;;;;;;5043678;28;37945;-78
2021/05/28 01:26:48;;;;;;;29.60;16.37;;;;;;;;;;5027545;28;36776;-84
2021/05/28 01:29:15;;;;;;;35.23;18.13;;;;;;;;;;5022675;27;39187;-78
2021/05/28 01:31:42;;;;;;;34.80;16.83;;;;;;;;;;5027822;28;38720;-79
2021/05/28 01:34:08;;;;;;;32.10;16.80;;;;;;;;;;5057749;28;38883;-77
2021/05/28 01:36:34;;;;;;;31.07;14.93;;;;;;;;;;5028162;28;37711;-83
2021/05/28 01:39:01;;;;;;;33.00;15.97;;;;;;;;;;5026608;28;40006;-78
2021/05/28 01:41:28;;;;;;;30.10;16.77;;;;;;;;;;5030776;28;37148;-83
2021/05/28 01:43:55;;;;;;;24.97;14.10;;;;;;;;;;5029073;28;38122;-79
2021/05/28 01:46:21;;;;;;;29.50;15.77;;;;;;;;;;5026628;28;38879;-80
2021/05/28 01:48:48;;;;;;;32.53;17.37;;;;;;;;;;5032243;28;38844;-77
2021/05/28 01:51:14;;;;;;;38.33;20.20;;;;;;;;;;5030961;28;39466;-78
2021/05/28 01:53:41;;;;;;;31.33;18.17;;;;;;;;;;5031122;28;39814;-79
2021/05/28 01:56:07;;;;;;;33.17;17.57;;;;;;;;;;5031383;28;36909;-79
2021/05/28 01:58:34;;;;;;;30.90;19.13;;;;;;;;;;5035215;28;39047;-81
2021/05/28 02:01:00;;;;;;;34.53;19.33;;;;;;;;;;5030502;27;38721;-80
2021/05/28 02:03:27;;;;;;;40.50;22.10;;;;;;;;;;5051273;27;47886;-77
2021/05/28 02:05:53;;;;;;;31.03;19.33;;;;;;;;;;5050103;27;36947;-78
2021/05/28 02:08:20;;;;;;;44.03;25.43;;;;;;;;;;5053910;27;38291;-81
2021/05/28 02:10:47;;;;;;;49.93;26.57;;;;;;;;;;5053124;27;38626;-77
2021/05/28 02:13:13;;;;;;;42.27;25.73;;;;;;;;;;5066748;27;39634;-79
2021/05/28 02:15:39;;;;;;;41.50;26.33;;;;;;;;;;5035021;27;37217;-78
2021/05/28 02:18:06;;;;;;;35.33;21.83;;;;;;;;;;5029718;28;39045;-79
2021/05/28 02:20:33;;;;;;;50.77;27.10;;;;;;;;;;5035213;28;39172;-78
2021/05/28 02:22:59;;;;;;;57.27;31.53;;;;;;;;;;5034474;28;39058;-80
2021/05/28 02:25:26;;;;;;;55.83;30.03;;;;;;;;;;5034119;28;35899;-81
2021/05/28 02:27:52;;;;;;;57.47;30.83;;;;;;;;;;5047804;28;39577;-79
2021/05/28 02:30:19;;;;;;;43.70;29.10;;;;;;;;;;5031462;28;37573;-78
2021/05/28 02:32:45;;;;;;;41.93;27.07;;;;;;;;;;5032269;28;39736;-77
2021/05/28 02:35:12;;;;;;;53.53;29.40;;;;;;;;;;5031400;28;39191;-80
2021/05/28 02:37:38;;;;;;;60.70;32.50;;;;;;;;;;5032715;28;37325;-77
2021/05/28 02:40:06;;;;;;;52.33;30.37;;;;;;;;;;5031123;28;38737;-78
2021/05/28 02:42:32;;;;;;;49.17;28.50;;;;;;;;;;5028793;28;38055;-78
2021/05/28 02:44:59;;;;;;;51.07;28.60;;;;;;;;;;5047200;28;36514;-80
2021/05/28 02:47:26;;;;;;;70.20;35.27;;;;;;;;;;5028749;28;38700;-78
2021/05/28 02:49:52;;;;;;;46.90;29.50;;;;;;;;;;5045280;27;39114;-77
2021/05/28 02:52:18;;;;;;;55.00;32.33;;;;;;;;;;5033041;28;38237;-78
2021/05/28 02:54:45;;;;;;;51.87;30.30;;;;;;;;;;5035423;28;37512;-77
2021/05/28 02:57:11;;;;;;;57.77;32.80;;;;;;;;;;5044716;27;40394;-78
2021/05/28 02:59:38;;;;;;;65.43;35.43;;;;;;;;;;5046881;27;38437;-84
2021/05/28 03:02:05;;;;;;;80.67;36.53;;;;;;;;;;5029198;28;37779;-81
2021/05/28 03:04:31;;;;;;;80.23;37.47;;;;;;;;;;5047276;27;38740;-80
2021/05/28 03:06:57;;;;;;;58.80;32.53;;;;;;;;;;5026321;28;39207;-80
2021/05/28 03:09:24;;;;;;;59.30;33.90;;;;;;;;;;5029718;28;38566;-80
2021/05/28 03:11:50;;;;;;;89.97;38.87;;;;;;;;;;5029868;28;39645;-78
2021/05/28 03:14:17;;;;;;;61.93;33.30;;;;;;;;;;5027440;28;35511;-80
2021/05/28 03:16:45;;;;;;;56.00;31.30;;;;;;;;;;5026867;28;39788;-78
2021/05/28 03:19:23;;;;;;;59.60;31.93;;;;;;;;;;5031399;28;41203;-78
2021/05/28 03:24:35;;;;;;;54.13;32.73;;;;;;;;;;5026569;28;49429;-79
2021/05/28 03:27:02;;;;;;;53.83;30.83;;;;;;;;;;5033710;28;40369;-77
2021/05/28 03:29:28;;;;;;;60.03;32.83;;;;;;;;;;5037735;28;39325;-78
2021/05/28 03:31:54;;;;;;;81.20;37.00;;;;;;;;;;5031330;28;38428;-78
2021/05/28 03:34:21;;;;;;;84.93;40.73;;;;;;;;;;5035045;28;37878;-80
2021/05/28 03:36:48;;;;;;;66.83;36.43;;;;;;;;;;5032038;28;40740;-79
2021/05/28 03:39:14;;;;;;;90.13;41.27;;;;;;;;;;5057556;27;39069;-79
2021/05/28 03:41:40;;;;;;;64.83;37.33;;;;;;;;;;5029043;28;37772;-80
2021/05/28 03:44:07;;;;;;;87.60;41.90;;;;;;;;;;5043004;28;37125;-80
2021/05/28 03:46:33;;;;;;;77.07;40.17;;;;;;;;;;5039882;27;40711;-79
2021/05/28 03:49:00;;;;;;;74.50;37.33;;;;;;;;;;5025594;28;38964;-77
2021/05/28 03:51:26;;;;;;;80.30;40.03;;;;;;;;;;5026325;27;37678;-77
2021/05/28 03:53:52;;;;;;;58.97;36.23;;;;;;;;;;5061926;28;36715;-79
2021/05/28 03:56:19;;;;;;;64.77;38.03;;;;;;;;;;5032107;28;38091;-79
2021/05/28 03:58:45;;;;;;;52.13;34.00;;;;;;;;;;5029916;28;38566;-77
2021/05/28 04:01:12;;;;;;;71.43;38.30;;;;;;;;;;5026534;28;37190;-78
2021/05/28 04:03:38;;;;;;;71.00;38.73;;;;;;;;;;5028456;28;36646;-80
2021/05/28 04:06:05;;;;;;;50.60;32.57;;;;;;;;;;5030823;28;39072;-80
2021/05/28 04:08:31;;;;;;;43.83;29.00;;;;;;;;;;5043087;28;40114;-79
2021/05/28 04:10:58;;;;;;;51.33;31.63;;;;;;;;;;5027334;28;38212;-80
2021/05/28 04:13:29;;;;;;;71.20;37.17;;;;;;;;;;5030685;28;37320;-77
2021/05/28 04:15:56;;;;;;;54.90;31.50;;;;;;;;;;5026033;27;40776;-78
2021/05/28 04:18:22;;;;;;;51.33;31.43;;;;;;;;;;5027734;28;39167;-78
2021/05/28 04:20:48;;;;;;;59.27;35.40;;;;;;;;;;5024825;28;38261;-77
2021/05/28 04:23:15;;;;;;;49.83;32.63;;;;;;;;;;5030514;28;36098;-77
2021/05/28 04:25:41;;;;;;;71.37;37.47;;;;;;;;;;5026680;28;38741;-78
2021/05/28 04:28:08;;;;;;;52.20;34.30;;;;;;;;;;5042834;28;37996;-78
2021/05/28 04:30:35;;;;;;;76.87;40.47;;;;;;;;;;5021686;28;38702;-77
2021/05/28 04:33:01;;;;;;;69.57;39.23;;;;;;;;;;5042901;28;36457;-78
2021/05/28 04:35:28;;;;;;;72.43;41.37;;;;;;;;;;5022688;28;46934;-78
2021/05/28 04:37:54;;;;;;;78.63;42.63;;;;;;;;;;5034823;28;38821;-77
2021/05/28 04:40:21;;;;;;;78.30;40.83;;;;;;;;;;5028464;28;35820;-77
2021/05/28 04:42:47;;;;;;;64.33;37.40;;;;;;;;;;5033340;28;36827;-78
2021/05/28 04:45:14;;;;;;;53.57;32.33;;;;;;;;;;5027949;28;39424;-76
2021/05/28 04:47:40;;;;;;;45.50;31.43;;;;;;;;;;5033505;28;38505;-81
2021/05/28 04:50:06;;;;;;;47.40;33.53;;;;;;;;;;5031540;28;37983;-82
2021/05/28 04:52:33;;;;;;;63.57;36.30;;;;;;;;;;5047943;28;37487;-80
2021/05/28 04:54:59;;;;;;;58.70;34.27;;;;;;;;;;5056134;28;43459;-82
2021/05/28 04:57:26;;;;;;;54.65;34.10;;;;;;;;;;5060924;27;39797;-80
2021/05/28 04:59:52;;;;;;;50.60;34.07;;;;;;;;;;5048381;28;37599;-80
2021/05/28 05:02:18;;;;;;;72.33;38.63;;;;;;;;;;5059973;27;39001;-78
2021/05/28 05:04:45;;;;;;;45.53;30.77;;;;;;;;;;5046640;28;40145;-79
2021/05/28 05:07:11;;;;;;;58.28;36.17;;;;;;;;;;5040274;28;37846;-79
2021/05/28 05:09:37;;;;;;;42.85;29.80;;;;;;;;;;5062769;28;38665;-79
2021/05/28 05:12:04;;;;;;;45.45;29.02;;;;;;;;;;5071182;28;36610;-78
2021/05/28 05:14:30;;;;;;;53.53;34.45;;;;;;;;;;5072973;27;37657;-79
2021/05/28 05:16:57;;;;;;;39.67;25.98;;;;;;;;;;5051844;28;39441;-78
2021/05/28 05:19:23;;;;;;;37.53;23.85;;;;;;;;;;5054865;28;40093;-79
2021/05/28 05:21:52;;;;;;;36.43;24.30;;;;;;;;;;5034591;28;37323;-79
2021/05/28 05:24:18;;;;;;;34.97;23.63;;;;;;;;;;5032707;28;37819;-79
2021/05/28 05:26:45;;;;;;;35.83;24.45;;;;;;;;;;5046641;28;39821;-79
2021/05/28 05:29:11;;;;;;;32.05;21.05;;;;;;;;;;5048213;27;38098;-79
2021/05/28 05:31:39;;;;;;;30.60;20.17;;;;;;;;;;5039788;28;37417;-79
2021/05/28 05:34:06;;;;;;;33.30;22.73;;;;;;;;;;5037204;28;40563;-78
2021/05/28 05:36:35;;;;;;;31.55;21.08;;;;;;;;;;5039139;28;39210;-80
2021/05/28 05:39:02;;;;;;;33.80;20.65;;;;;;;;;;5036628;28;38025;-81
2021/05/28 05:41:28;;;;;;;29.17;20.60;;;;;;;;;;5058548;27;49659;-79
2021/05/28 05:43:54;;;;;;;25.40;19.80;;;;;;;;;;5048299;28;39340;-80
2021/05/28 05:46:21;;;;;;;27.60;20.90;;;;;;;;;;5053595;28;38685;-79
2021/05/28 05:48:47;;;;;;;31.25;21.50;;;;;;;;;;5058688;28;38536;-78
2021/05/28 05:51:14;;;;;;;26.15;19.80;;;;;;;;;;5056388;27;37392;-78
2021/05/28 05:53:40;;;;;;;25.70;19.60;;;;;;;;;;5057147;28;39363;-79
2021/05/28 05:56:06;;;;;;;30.77;20.65;;;;;;;;;;5051097;28;40081;-77
2021/05/28 05:58:33;;;;;;;31.75;21.42;;;;;;;;;;5050489;28;38852;-76
2021/05/28 06:00:59;;;;;;;29.08;19.10;;;;;;;;;;5056362;28;41394;-81
2021/05/28 06:03:25;;;;;;;21.90;17.25;;;;;;;;;;5053803;28;41203;-76
2021/05/28 06:05:52;;;;;;;29.27;19.25;;;;;;;;;;5059344;28;38616;-77
2021/05/28 06:08:18;;;;;;;29.35;18.65;;;;;;;;;;5061360;27;38429;-77
2021/05/28 06:10:45;;;;;;;25.83;18.60;;;;;;;;;;5061724;27;37948;-77
2021/05/28 06:13:11;;;;;;;24.15;16.95;;;;;;;;;;5057872;28;39279;-75
2021/05/28 06:15:37;;;;;;;24.73;16.38;;;;;;;;;;5052357;28;39798;-75
2021/05/28 06:18:04;;;;;;;23.23;17.58;;;;;;;;;;5061068;27;37825;-77
2021/05/28 06:20:30;;;;;;;21.05;16.05;;;;;;;;;;5062181;28;37968;-76
2021/05/28 06:22:57;;;;;;;20.60;15.60;;;;;;;;;;5067829;28;39699;-75
2021/05/28 06:25:24;;;;;;;19.27;14.07;;;;;;;;;;5060914;27;39575;-77
2021/05/28 06:27:50;;;;;;;23.10;13.88;;;;;;;;;;5058690;27;38964;-76
2021/05/28 06:30:17;;;;;;;20.77;14.10;;;;;;;;;;5055816;28;37141;-75
2021/05/28 06:32:43;;;;;;;18.05;13.48;;;;;;;;;;5060798;28;39088;-77
2021/05/28 06:35:09;;;;;;;18.58;14.18;;;;;;;;;;5053195;28;38615;-77
2021/05/28 06:37:36;;;;;;;18.17;12.70;;;;;;;;;;5062261;28;36560;-77
2021/05/28 06:40:04;;;;;;;20.92;12.60;;;;;;;;;;5061420;28;38492;-75
2021/05/28 06:42:30;;;;;;;20.42;13.45;;;;;;;;;;5052932;28;46625;-76
2021/05/28 06:44:56;;;;;;;15.55;11.48;;;;;;;;;;5065397;27;39516;-76
2021/05/28 06:47:25;;;;;;;15.35;11.48;;;;;;;;;;5070385;27;38003;-76
2021/05/28 06:49:51;;;;;;;21.67;12.75;;;;;;;;;;5063431;27;37680;-77
2021/05/28 06:52:18;;;;;;;18.05;11.63;;;;;;;;;;5066621;27;38593;-76
2021/05/28 06:54:45;;;;;;;20.13;12.30;;;;;;;;;;5073477;28;39328;-76
2021/05/28 06:57:11;;;;;;;15.80;11.18;;;;;;;;;;5064897;27;39624;-76
2021/05/28 06:59:38;;;;;;;13.85;10.57;;;;;;;;;;5063961;28;35993;-75
2021/05/28 07:02:06;;;;;;;17.50;11.15;;;;;;;;;;5065622;27;39545;-76
2021/05/28 07:04:33;;;;;;;14.63;9.95;;;;;;;;;;5067208;28;39213;-75
2021/05/28 07:07:00;;;;;;;13.98;9.40;;;;;;;;;;5071137;27;38761;-76
2021/05/28 07:09:26;;;;;;;13.80;9.65;;;;;;;;;;5073182;27;36394;-76
2021/05/28 07:11:52;;;;;;;17.23;8.35;;;;;;;;;;5073770;28;39318;-75
2021/05/28 07:14:19;;;;;;;11.50;7.82;;;;;;;;;;5059445;27;39667;-75
2021/05/28 07:16:45;;;;;;;12.75;8.70;;;;;;;;;;5064883;28;38116;-75
2021/05/28 07:19:11;;;;;;;12.10;8.55;;;;;;;;;;5081161;27;37866;-75
2021/05/28 07:21:38;;;;;;;10.57;7.63;;;;;;;;;;5059065;28;40725;-77
2021/05/28 07:24:04;;;;;;;11.95;7.00;;;;;;;;;;5059732;27;38401;-75
2021/05/28 07:26:31;;;;;;;14.52;7.97;;;;;;;;;;5058640;28;39536;-76
2021/05/28 07:28:59;;;;;;;11.90;8.25;;;;;;;;;;5058561;28;37872;-74
2021/05/28 07:31:25;;;;;;;10.65;7.88;;;;;;;;;;5050492;27;40042;-76
2021/05/28 07:33:51;;;;;;;19.55;8.73;;;;;;;;;;5059968;28;38760;-74
2021/05/28 07:36:18;;;;;;;23.40;8.75;;;;;;;;;;5052792;27;38772;-75
2021/05/28 07:38:44;;;;;;;11.80;6.47;;;;;;;;;;5060149;27;37072;-74
2021/05/28 07:41:11;;;;;;;10.07;5.95;;;;;;;;;;5059783;27;38760;-75
2021/05/28 07:43:38;;;;;;;13.05;7.18;;;;;;;;;;5056678;28;39115;-75
2021/05/28 07:46:05;;;;;;;7.00;5.35;;;;;;;;;;5058770;28;38165;-75
2021/05/28 07:48:31;;;;;;;11.75;7.05;;;;;;;;;;5060399;28;37584;-75
2021/05/28 07:51:00;;;;;;;10.75;7.30;;;;;;;;;;5062837;27;39036;-75
2021/05/28 07:53:27;;;;;;;10.63;7.50;;;;;;;;;;5063818;28;40944;-75
2021/05/28 07:55:55;;;;;;;11.65;7.97;;;;;;;;;;5064328;28;38793;-75
2021/05/28 07:58:22;;;;;;;8.13;6.05;;;;;;;;;;5052189;28;37595;-74
2021/05/28 08:00:48;;;;;;;8.13;5.22;;;;;;;;;;5062901;27;39221;-74
2021/05/28 08:03:14;;;;;;;11.45;5.75;;;;;;;;;;5053463;28;38983;-74
2021/05/28 08:05:41;;;;;;;8.25;5.45;;;;;;;;;;5058503;28;38246;-75
2021/05/28 08:08:09;;;;;;;7.95;4.05;;;;;;;;;;5062451;28;38722;-75
2021/05/28 08:10:35;;;;;;;7.65;4.85;;;;;;;;;;5055275;28;38303;-84
2021/05/28 08:13:02;;;;;;;7.82;3.63;;;;;;;;;;5049536;28;38617;-75
2021/05/28 08:15:31;;;;;;;7.90;4.22;;;;;;;;;;5055602;27;38306;-75
2021/05/28 08:17:57;;;;;;;4.95;3.28;;;;;;;;;;5070910;28;37282;-75
2021/05/28 08:20:23;;;;;;;3.95;2.30;;;;;;;;;;5064308;27;38796;-75
2021/05/28 08:22:51;;;;;;;6.85;3.38;;;;;;;;;;5063985;28;37848;-76
2021/05/28 08:25:18;;;;;;;8.00;4.38;;;;;;;;;;5058537;28;38735;-74
2021/05/28 08:27:44;;;;;;;6.00;4.85;;;;;;;;;;5051551;28;37377;-75
2021/05/28 08:30:13;;;;;;;9.38;5.22;;;;;;;;;;5058876;27;38321;-75
2021/05/28 08:32:39;;;;;;;7.72;4.50;;;;;;;;;;5053898;28;39259;-75
2021/05/28 08:35:06;;;;;;;6.78;4.25;;;;;;;;;;5050051;28;38403;-73
2021/05/28 08:37:32;;;;;;;6.90;3.90;;;;;;;;;;5063281;27;36503;-75
2021/05/28 08:39:58;;;;;;;4.50;3.60;;;;;;;;;;5062187;27;38920;-77
2021/05/28 08:42:25;;;;;;;9.00;3.22;;;;;;;;;;5064001;27;38370;-76
2021/05/28 08:44:51;;;;;;;5.05;3.95;;;;;;;;;;5063123;28;38889;-76
2021/05/28 08:47:18;;;;;;;6.97;4.07;;;;;;;;;;5049486;28;37043;-74
2021/05/28 08:49:48;;;;;;;5.70;3.25;;;;;;;;;;5057684;27;38929;-77
2021/05/28 08:52:14;;;;;;;5.03;3.42;;;;;;;;;;5059628;27;38620;-78
2021/05/28 08:54:41;;;;;;;5.18;3.03;;;;;;;;;;5062893;28;37705;-78
2021/05/28 08:57:10;;;;;;;6.45;3.63;;;;;;;;;;5060043;27;37189;-77
2021/05/28 08:59:36;;;;;;;9.43;4.55;;;;;;;;;;5060232;28;39779;-77
2021/05/28 09:02:03;;;;;;;6.60;4.00;;;;;;;;;;5055722;27;38674;-78
2021/05/28 09:04:29;;;;;;;6.07;4.05;;;;;;;;;;5052818;28;38620;-76
2021/05/28 09:06:56;;;;;;;5.75;3.53;;;;;;;;;;5062328;28;38273;-77
2021/05/28 09:09:23;;;;;;;2.72;2.17;;;;;;;;;;5058480;27;38645;-77
2021/05/28 09:11:50;;;;;;;4.68;2.10;;;;;;;;;;5046124;28;38745;-78
2021/05/28 09:14:29;;;;;;;2.63;2.28;;;;;;;;;;5038871;28;37001;-77
2021/05/28 09:16:55;;;;;;;4.60;2.55;;;;;;;;;;5069616;28;37996;-77
2021/05/28 09:19:23;;;;;;;4.15;2.55;;;;;;;;;;5030432;27;38709;-77
2021/05/28 09:21:56;;;;;;;4.50;3.17;;;;;;;;;;5034672;28;38519;-78
2021/05/28 09:24:34;;;;;;;8.73;2.90;;;;;;;;;;5065407;28;38513;-78
2021/05/28 09:27:19;;;;;;;5.57;3.42;;;;;;;;;;5036895;28;37298;-78
2021/05/28 09:29:58;;;;;;;5.22;3.55;;;;;;;;;;5025679;28;49453;-78
2021/05/28 09:32:25;;;;;;;4.85;2.97;;;;;;;;;;5033193;28;39018;-78
2021/05/28 09:34:51;;;;;;;7.88;3.83;;;;;;;;;;5037565;28;38978;-77
2021/05/28 09:37:18;;;;;;;4.20;3.40;;;;;;;;;;5032619;27;37661;-75
2021/05/28 09:39:44;;;;;;;5.60;4.10;;;;;;;;;;5039570;28;38963;-75
2021/05/28 09:42:11;;;;;;;4.40;3.03;;;;;;;;;;5065261;28;38671;-75
2021/05/28 09:44:37;;;;;;;4.82;3.40;;;;;;;;;;5027353;28;37978;-76
2021/05/28 09:47:03;;;;;;;6.93;3.45;;;;;;;;;;5033617;28;37192;-76
2021/05/28 09:49:46;;;;;;;6.93;4.13;;;;;;;;;;5034858;28;41108;-77
2021/05/28 09:52:20;;;;;;;4.60;3.20;;;;;;;;;;5058764;28;39672;-76
2021/05/28 09:55:04;;;;;;;5.35;2.97;;;;;;;;;;5027241;28;39066;-76
2021/05/28 09:57:35;;;;;;;5.28;3.13;;;;;;;;;;5029379;28;47322;-76
2021/05/28 10:00:03;;;;;;;6.13;3.60;;;;;;;;;;5065437;28;38342;-76
2021/05/28 10:04:57;;;;;;;6.57;3.45;;;;;;;;;;5055835;28;38808;-75
2021/05/28 10:07:25;;;;;;;6.03;3.85;;;;;;;;;;5048329;27;37670;-75
2021/05/28 10:09:52;;;;;;;6.00;3.33;;;;;;;;;;5052344;28;39875;-75
2021/05/28 10:12:18;;;;;;;6.68;3.70;;;;;;;;;;5047567;28;38817;-75
2021/05/28 10:14:45;;;;;;;5.45;3.30;;;;;;;;;;5062091;28;37837;-75
2021/05/28 10:17:12;;;;;;;4.05;3.40;;;;;;;;;;5067696;27;37293;-76
2021/05/28 10:19:39;;;;;;;5.80;3.25;;;;;;;;;;5064326;27;39936;-74
2021/05/28 10:22:05;;;;;;;5.80;3.33;;;;;;;;;;5062715;27;40053;-77
2021/05/28 10:24:32;;;;;;;5.30;3.42;;;;;;;;;;5061605;28;38515;-76
2021/05/28 10:26:58;;;;;;;5.03;3.15;;;;;;;;;;5061152;28;35807;-77
2021/05/28 10:29:28;;;;;;;5.25;3.22;;;;;;;;;;5059087;27;39655;-76
2021/05/28 10:31:57;;;;;;;8.02;3.25;;;;;;;;;;5052869;27;38613;-76
2021/05/28 10:34:24;;;;;;;5.85;2.95;;;;;;;;;;5056303;28;38382;-75
2021/05/28 10:36:52;;;;;;;7.22;2.80;;;;;;;;;;5054019;27;39871;-76
2021/05/28 10:39:19;;;;;;;7.22;3.33;;;;;;;;;;5062420;27;39037;-74
2021/05/28 10:41:47;;;;;;;4.82;2.83;;;;;;;;;;5051678;27;38477;-75
2021/05/28 10:44:14;;;;;;;6.68;2.92;;;;;;;;;;5049820;27;38796;-76
2021/05/28 10:46:52;;;;;;;8.55;2.78;;;;;;;;;;5047760;28;37825;-75
2021/05/28 10:49:18;;;;;;;3.80;2.58;;;;;;;;;;5057568;27;39269;-76
2021/05/28 10:51:58;;;;;;;7.47;3.17;;;;;;;;;;5059303;28;39188;-75
2021/05/28 10:54:25;;;;;;;6.00;3.55;;;;;;;;;;5047749;28;39282;-75
2021/05/28 10:56:52;;;;;;;6.85;3.42;;;;;;;;;;5049335;28;38498;-76
2021/05/28 10:59:20;;;;;;;3.58;2.95;;;;;;;;;;5047820;28;39716;-78
2021/05/28 11:01:47;;;;;;;5.18;2.70;;;;;;;;;;5055381;28;38581;-78
2021/05/28 11:04:17;;;;;;;3.65;2.63;;;;;;;;;;5059443;28;38748;-76
2021/05/28 11:06:55;;;;;;;5.38;2.60;;;;;;;;;;5047076;27;38127;-76
2021/05/28 11:09:37;;;;;;;3.85;2.30;;;;;;;;;;5054510;28;39788;-77
2021/05/28 11:12:06;;;;;;;5.18;2.50;;;;;;;;;;5048025;28;40322;-78
2021/05/28 11:14:35;;;;;;;3.58;2.33;;;;;;;;;;5064017;28;39508;-76
2021/05/28 11:17:04;;;;;;;4.80;2.08;;;;;;;;;;5055843;27;37279;-77
2021/05/28 11:19:35;;;;;;;4.22;1.83;;;;;;;;;;5058447;27;48543;-78
2021/05/28 11:22:06;;;;;;;3.47;2.30;;;;;;;;;;5049769;28;40145;-78
2021/05/28 11:24:48;;;;;;;2.75;2.00;;;;;;;;;;5059802;28;48810;-78
2021/05/28 11:27:20;;;;;;;5.45;2.45;;;;;;;;;;5059310;27;37788;-80
2021/05/28 11:30:06;;;;;;;2.88;1.98;;;;;;;;;;5056895;28;39719;-80
2021/05/28 11:32:34;;;;;;;3.65;2.20;;;;;;;;;;5051254;28;47515;-78
2021/05/28 11:35:13;;;;;;;3.70;2.13;;;;;;;;;;5051783;28;39149;-78
2021/05/28 11:37:58;;;;;;;5.18;2.13;;;;;;;;;;5032815;28;48598;-79
2021/05/28 11:40:25;;;;;;;4.38;1.90;;;;;;;;;;5038285;28;38469;-79
2021/05/28 11:42:52;;;;;;;4.90;1.80;;;;;;;;;;5038906;28;37839;-78
2021/05/28 11:45:19;;;;;;;3.08;1.70;;;;;;;;;;5032381;27;38803;-78
2021/05/28 11:47:46;;;;;;;4.40;1.77;;;;;;;;;;5052607;28;37018;-79
2021/05/28 11:50:17;;;;;;;3.03;1.70;;;;;;;;;;5053705;27;39538;-78
2021/05/28 11:52:56;;;;;;;3.30;1.70;;;;;;;;;;5045631;28;39860;-79
2021/05/28 11:55:23;;;;;;;4.70;1.73;;;;;;;;;;5036540;28;37685;-78
2021/05/28 11:58:00;;;;;;;2.75;2.05;;;;;;;;;;5039679;27;37542;-77
2021/05/28 12:00:27;;;;;;;4.55;2.03;;;;;;;;;;5048539;27;39233;-77
2021/05/28 12:02:57;;;;;;;3.63;2.47;;;;;;;;;;5034297;27;38114;-76
2021/05/28 12:05:27;;;;;;;3.08;2.03;;;;;;;;;;5031358;27;38335;-77
2021/05/28 12:07:55;;;;;;;2.92;1.95;;;;;;;;;;5041945;28;36963;-78
2021/05/28 12:10:22;;;;;;;4.40;2.05;;;;;;;;;;5035696;28;41277;-78
2021/05/28 12:12:56;;;;;;;3.85;1.90;;;;;;;;;;5056795;28;38959;-78
2021/05/28 12:15:27;;;;;;;3.03;1.95;;;;;;;;;;5051885;27;37458;-78
2021/05/28 12:17:54;;;;;;;5.32;2.00;;;;;;;;;;5076843;28;37808;-78
2021/05/28 12:20:22;;;;;;;2.25;1.83;;;;;;;;;;5058087;27;38788;-77
2021/05/28 12:23:00;;;;;;;3.13;1.67;;;;;;;;;;5053809;28;39530;-77
2021/05/28 12:25:28;;;;;;;4.55;1.45;;;;;;;;;;5063074;27;48892;-79
2021/05/28 12:28:06;;;;;;;2.78;1.30;;;;;;;;;;5038320;28;37517;-79
2021/05/28 12:30:32;;;;;;;1.60;1.30;;;;;;;;;;5042900;28;50516;-80
2021/05/28 12:32:59;;;;;;;2.72;1.65;;;;;;;;;;5035897;28;37805;-79
2021/05/28 12:35:25;;;;;;;0.82;0.80;;;;;;;;;;5038384;28;37790;-78
2021/05/28 12:38:02;;;;;;;1.45;1.10;;;;;;;;;;5042731;28;37753;-78
2021/05/28 12:40:29;;;;;;;2.15;0.90;;;;;;;;;;5062845;27;49012;-78
2021/05/28 12:42:56;;;;;;;1.85;1.15;;;;;;;;;;5056159;28;40815;-79
2021/05/28 12:45:32;;;;;;;1.70;1.20;;;;;;;;;;5072207;28;37957;-79
2021/05/28 12:47:58;;;;;;;5.00;1.58;;;;;;;;;;5059392;28;37924;-78
2021/05/28 12:50:34;;;;;;;1.45;1.10;;;;;;;;;;5040770;27;38906;-78
2021/05/28 12:53:01;;;;;;;1.83;1.58;;;;;;;;;;5068426;28;39225;-78
2021/05/28 12:55:29;;;;;;;1.40;1.10;;;;;;;;;;5030821;28;49343;-77
2021/05/28 12:57:55;;;;;;;2.10;1.73;;;;;;;;;;5040480;28;37912;-79
2021/05/28 13:00:35;;;;;;;3.22;1.17;;;;;;;;;;5038100;27;39132;-79
2021/05/28 13:03:02;;;;;;;1.90;1.08;;;;;;;;;;5036769;28;39781;-78
2021/05/28 13:05:38;;;;;;;3.42;1.88;;;;;;;;;;5033704;28;37794;-77
2021/05/28 13:08:07;;;;;;;1.35;1.20;;;;;;;;;;5034189;28;37974;-77
2021/05/28 13:10:34;;;;;;;2.78;1.27;;;;;;;;;;5039274;27;39094;-79
2021/05/28 13:13:22;;;;;;;1.83;1.20;;;;;;;;;;5074666;28;39095;-79
2021/05/28 13:15:49;;;;;;;2.53;1.85;;;;;;;;;;5060614;28;47710;-77
2021/05/28 13:18:15;;;;;;;4.50;2.17;;;;;;;;;;5048502;27;37880;-78
2021/05/28 13:20:46;;;;;;;1.50;1.20;;;;;;;;;;5075831;27;39377;-78
2021/05/28 13:23:25;;;;;;;2.30;1.63;;;;;;;;;;5049531;27;39489;-76
2021/05/28 13:25:52;;;;;;;3.00;2.05;;;;;;;;;;5068194;28;38932;-77
2021/05/28 13:28:19;;;;;;;2.75;2.00;;;;;;;;;;5034228;27;37175;-79
2021/05/28 13:30:51;;;;;;;3.08;1.70;;;;;;;;;;5037898;28;40502;-77
2021/05/28 13:33:23;;;;;;;3.03;1.70;;;;;;;;;;5038715;28;38954;-77
2021/05/28 13:35:49;;;;;;;;;;;;;;;;;;5033408;28;38310;-77
2021/05/28 13:38:16;;;;;;;9.80;2.28;;;;;;;;;;5036341;28;38524;-80
2021/05/28 13:40:44;;;;;;;4.00;1.60;;;;;;;;;;5036289;27;40101;-78
2021/05/28 13:43:13;;;;;;;4.03;1.88;;;;;;;;;;5065035;28;39137;-78
2021/05/28 13:45:40;;;;;;;2.25;1.58;;;;;;;;;;5031774;28;37672;-77
2021/05/28 13:48:06;;;;;;;3.97;2.03;;;;;;;;;;5036917;28;36281;-77
2021/05/28 13:50:35;;;;;;;2.90;2.00;;;;;;;;;;5039962;28;38640;-77
2021/05/28 13:53:03;;;;;;;4.00;2.00;;;;;;;;;;5036107;28;39303;-78
2021/05/28 13:55:30;;;;;;;2.83;1.80;;;;;;;;;;5029847;28;39195;-77
2021/05/28 13:57:57;;;;;;;5.70;2.55;;;;;;;;;;5068334;28;38982;-78
2021/05/28 14:00:23;;;;;;;3.40;1.58;;;;;;;;;;5066757;28;39979;-78
2021/05/28 14:02:50;;;;;;;1.80;1.42;;;;;;;;;;5040610;28;39143;-78
2021/05/28 14:05:16;;;;;;;1.98;1.80;;;;;;;;;;5063175;27;37856;-78
2021/05/28 14:07:45;;;;;;;2.80;1.55;;;;;;;;;;5032087;28;36917;-77
2021/05/28 14:10:11;;;;;;;1.80;1.50;;;;;;;;;;5029871;28;38875;-77
2021/05/28 14:12:38;;;;;;;3.95;2.33;;;;;;;;;;5068966;28;40068;-79
2021/05/28 14:15:05;;;;;;;3.78;1.60;;;;;;;;;;5060771;28;38345;-77
2021/05/28 14:17:31;;;;;;;2.47;1.58;;;;;;;;;;5040106;28;47199;-78
2021/05/28 14:19:58;;;;;;;1.50;1.40;;;;;;;;;;5054169;28;40590;-77
2021/05/28 14:22:24;;;;;;;2.45;1.55;;;;;;;;;;5064544;27;39964;-78
2021/05/28 14:24:51;;;;;;;2.35;1.52;;;;;;;;;;5048837;28;37336;-79
2021/05/28 14:27:18;;;;;;;3.83;1.60;;;;;;;;;;5036029;28;37288;-77
2021/05/28 14:29:44;;;;;;;3.90;1.75;;;;;;;;;;5035928;28;38831;-79
2021/05/28 14:32:11;;;;;;;2.17;1.38;;;;;;;;;;5034894;28;37891;-77
2021/05/28 14:34:37;;;;;;;3.03;1.80;;;;;;;;;;5067439;28;38304;-79
2021/05/28 14:37:04;;;;;;;2.17;1.63;;;;;;;;;;5066301;28;37827;-77
2021/05/28 14:39:32;;;;;;;3.08;1.70;;;;;;;;;;5034772;28;40829;-78